Aérodrome :
LOGIN :

S'inscrire | Disclaimer

   EN    FR    IT 

 










Légende :    VFR   VFR Marginal   IFR   IFR Intensif   IFR Très Intensif
Visi : 
Plafond : 
>= 8 km
>= 3000ft
5 à 8 km
1000 à 3000 ft
1500m à 5 km
500 à 1000 ft
800 à 1500m
200 à 500 ft
< 800m
< 200 ft
Symboles :   Orages  Brouillard  Fortes neiges  Fortes précipitations  Vent > 20 kt
SIGMETs :   Divers  Orages  Givrage  Turbulence  Onde Orograph.  Cendres Volcan.







- Altitude de l'aérodrome : 1674 ft
- Code IATA : BRN


LSZB - Bern Belp

DERNIER METAR :
  • 202050Z AUTO 26007KT 190V340 9999 -RA FEW026 SCT032 BKN037 09/05 Q1001

METARs EXPIRÉS :
  • 202020Z AUTO 25008KT 210V290 9999 -RA BKN038 08/05 Q1001
  • 201950Z AUTO 24014KT 200V290 9999 FEW033 SCT041 BKN120 09/04 Q1002
  • 201920Z AUTO 25013KT 190V290 9999 -RA FEW045 BKN050 09/04 Q1002
  • 201850Z AUTO 26015G27KT 220V310 9999 -DZ FEW043 BKN048 08/04 Q1002
  • 201820Z AUTO 26007G22KT 160V330 9999 SCT037 08/03 Q1002

TAF TAF LSZB
Valide du 20 à 15h jusqu'au 21 à 00h UTC


201425Z 2015/2024 27011KT 9999 -RA FEW015 BKN040
TEMPO 2015/2024 28015G30KT RA BKN020
TEMPO 2015/2019 3000 SNRA BKN010
PROB40
TEMPO 2015/2018 1500 SN BKN008
ATIS : +41 22 417 40 76
Pas de NOTAMs connus pour ce terrain.



MET'MAP, la Météo Aéronautique d'un coup d'oeil ! - Copyright ORBIFLY Décembre 2007 - Disclaimer

ORBIFLY MET'MAP TEAM :

Programmation & Développement : Alexandra Zaïnal
Conception & Développement : Baudouin d'Aumeries
Co-Programmation & Développement : Marc-Olivier Méhu
Soutien technique & logistique : Manuel Goepfert

Contact : metmap@orbifly.com




SOURCES & CREDITS :

   NOAA